Chadstone Weather > Observations for 22/09/20

Select Day:



Observations
Time Temp Hum DP Wind Gust Dir Rain >9am Press
C % C kph kph mm hPa
00:00 14.2 56 5.6 9.7 17.3 NNW 0.0 1011.5
00:10 14.1 56 5.5 8.1 15.8 N 0.0 1011.4
00:20 14.1 56 5.5 8.2 14.8 NNE 0.0 1011.4
00:30 14.0 56 5.4 9.4 18.4 NNW 0.0 1011.4
00:40 14.1 56 5.5 9.0 18.4 NNW 0.0 1011.3
00:50 14.2 55 5.3 8.8 14.8 NW 0.0 1011.3
01:00 14.3 55 5.4 11.4 19.4 N 0.0 1011.0
01:10 14.4 55 5.5 10.5 18.4 NNW 0.0 1011.1
01:20 14.3 55 5.4 9.1 17.3 N 0.0 1010.9
01:30 14.4 55 5.5 10.2 20.9 N 0.0 1010.8
01:40 14.4 55 5.5 10.4 20.9 NNE 0.0 1010.7
01:50 14.4 55 5.5 9.8 18.4 NNW 0.0 1010.7
02:00 14.3 55 5.4 9.9 14.8 N 0.0 1010.6
02:10 14.3 55 5.4 9.7 14.8 N 0.0 1010.6
02:20 14.3 55 5.4 9.7 14.8 N 0.0 1010.4
02:30 14.3 55 5.4 9.7 14.8 N 0.0 1010.4
02:40 14.3 55 5.4 9.7 14.8 N 0.0 1010.4
02:50 14.3 55 5.4 9.7 14.8 N 0.0 1010.4
03:00 14.3 55 5.4 9.7 14.8 N 0.0 1010.5
03:10 14.3 56 5.6 10.3 25.6 NNW 0.0 1010.4
03:20 14.3 56 5.6 9.7 13.3 N 0.0 1010.3
03:30 14.3 56 5.6 9.7 13.3 N 0.0 1010.3
03:40 14.0 58 5.9 9.9 17.3 NW 0.0 1010.3
03:50 13.9 59 6.0 10.9 17.3 NW 0.0 1010.4
04:00 13.8 60 6.2 7.0 19.4 NW 0.0 1010.3
04:10 13.7 61 6.3 6.0 12.2 NW 0.0 1010.3
04:20 13.7 62 6.6 7.7 15.8 NNW 0.0 1010.4
04:30 13.5 62 6.4 7.5 17.3 NNW 0.0 1010.6
04:40 13.5 63 6.6 6.9 13.3 NNW 0.0 1010.9
04:50 13.3 63 6.4 7.4 14.8 N 0.0 1011.2
05:00 13.3 64 6.6 7.8 13.3 N 0.0 1011.0
05:10 13.2 64 6.5 6.4 13.3 NNW 0.0 1011.0
05:20 13.2 65 6.8 9.3 23.4 NNE 0.0 1011.0
05:30 13.2 65 6.8 12.7 24.5 NW 0.0 1011.2
05:40 13.1 66 6.9 13.4 25.6 N 0.0 1011.4
05:50 13.0 66 6.8 9.6 23.4 N 0.0 1011.4
06:00 12.9 66 6.7 9.0 15.8 NNW 0.0 1011.5
06:10 12.7 67 6.7 11.2 22.0 NNW 0.0 1011.5
06:20 12.6 68 6.9 13.1 23.4 N 0.0 1011.5
06:30 12.5 69 7.0 12.1 23.4 N 0.0 1011.6
06:40 12.5 70 7.2 9.4 22.0 NNW 0.0 1012.0
06:50 12.5 70 7.2 9.7 22.0 NNW 0.0 1012.1
07:00 12.6 71 7.5 11.7 27.0 NNW 0.0 1012.1
07:10 12.8 71 7.7 11.5 24.5 NW 0.0 1012.2
07:20 13.1 69 7.5 12.3 24.5 NNW 0.0 1012.2
07:30 13.2 69 7.6 13.5 25.6 NW 0.0 1012.3
07:40 13.5 68 7.7 13.7 28.1 NNW 0.0 1012.3
07:50 13.8 67 7.8 12.7 23.4 NW 0.0 1012.3
08:00 13.8 66 7.6 13.7 24.5 NW 0.0 1012.5
08:10 13.9 66 7.7 10.8 23.4 WNW 0.0 1012.3
08:20 14.0 65 7.5 14.3 28.1 NW 0.0 1012.4
08:30 14.2 64 7.5 17.0 43.9 NW 0.0 1012.5
08:40 14.7 64 8.0 16.6 46.4 NW 0.0 1012.5
08:50 15.0 61 7.5 16.1 29.5 NW 0.0 1012.4
09:00 15.1 61 7.6 16.4 33.1 N 0.0 1012.4
09:10 15.2 61 7.7 13.2 25.6 NW 0.0 1012.2
09:20 15.2 61 7.7 12.6 28.1 NNW 0.0 1012.4
09:30 15.4 62 8.2 19.8 34.2 NNW 0.0 1012.3
09:40 15.3 63 8.3 16.1 35.6 NNW 0.0 1012.2
09:50 15.4 63 8.4 13.0 29.5 N 0.0 1012.2
10:00 15.3 63 8.3 17.2 30.6 NNW 0.0 1011.9
10:10 15.4 63 8.4 17.5 40.3 NNW 0.0 1011.8
10:20 15.7 59 7.7 17.4 36.7 NW 0.0 1011.8
10:30 16.2 57 7.7 17.2 35.6 NW 0.0 1011.8
10:40 16.3 55 7.2 17.6 37.8 NW 0.0 1011.5
10:50 16.4 55 7.3 19.7 34.2 NNW 0.0 1011.7
11:00 16.4 55 7.3 21.9 37.8 NW 0.0 1011.5
11:10 16.8 56 8.0 18.7 35.6 NW 0.0 1011.5
11:20 17.1 54 7.7 18.7 39.2 NNW 0.0 1011.6
11:30 17.4 52 7.5 21.2 41.8 NW 0.0 1011.5
11:40 17.8 51 7.5 20.9 35.6 NW 0.0 1011.9
11:50 17.7 50 7.2 20.3 39.2 NW 0.0 1012.2
12:00 17.8 51 7.5 16.3 35.6 NW 0.0 1012.0
12:10 17.6 50 7.1 17.8 34.2 NW 0.0 1011.9
12:20 18.2 50 7.6 20.9 45.4 NNW 0.0 1011.8
12:30 18.4 48 7.2 23.2 51.5 NW 0.0 1011.7
12:40 18.5 50 7.9 20.7 41.8 NNW 0.0 1011.7
12:50 18.7 47 7.2 21.3 42.8 WNW 0.0 1011.9
13:00 18.1 49 7.2 19.6 40.3 NNW 0.0 1011.5
13:10 18.1 49 7.2 22.2 43.9 NW 0.0 1011.5
13:20 18.5 47 7.0 24.8 41.8 NW 0.0 1011.5
13:30 18.3 47 6.8 20.5 42.8 NW 0.0 1011.2
13:40 18.3 47 6.8 21.8 50.0 WNW 0.0 1011.3
13:50 18.4 48 7.2 21.4 40.3 NW 0.0 1011.3
14:00 18.6 47 7.1 22.0 49.0 NW 0.0 1011.3
14:10 18.4 47 6.9 24.8 49.0 NW 0.0 1011.4
14:20 18.4 48 7.2 19.1 37.8 WNW 0.0 1011.2
14:30 18.4 48 7.2 19.7 36.7 NW 0.0 1011.3
14:40 18.0 49 7.1 21.6 41.8 NNW 0.0 1011.6
14:50 18.5 49 7.6 22.8 47.9 NW 0.0 1011.5
15:00 18.6 49 7.7 24.9 52.6 NW 0.0 1011.7
15:10 18.5 51 8.2 21.9 39.2 NNW 0.0 1011.6
15:20 18.2 52 8.2 18.2 36.7 NNW 0.0 1011.7
15:30 18.1 52 8.1 18.3 34.2 WNW 0.0 1011.9
15:40 17.9 53 8.2 19.8 50.0 NW 0.0 1012.0
15:50 17.6 52 7.6 22.7 46.4 NW 0.0 1012.0
16:00 17.4 52 7.5 19.4 40.3 NW 0.0 1012.0
16:10 17.1 56 8.3 18.4 45.4 NW 0.0 1012.6
16:20 16.2 66 9.8 18.1 36.7 WNW 0.0 1013.2
16:30 16.0 67 9.9 16.3 28.1 W 0.0 1013.0
16:40 15.9 65 9.3 18.6 51.5 WNW 0.0 1013.5
16:50 15.5 60 7.8 27.5 51.5 NNW 0.0 1013.8
17:00 14.9 63 7.9 17.5 35.6 NW 0.0 1013.9
17:10 15.0 63 8.0 17.9 33.1 NW 0.0 1014.1
17:20 15.3 63 8.3 16.2 28.1 WNW 0.0 1014.3
17:30 15.3 61 7.8 15.0 29.5 WNW 0.0 1014.6
17:40 15.2 62 8.0 17.0 34.2 WNW 0.0 1014.9
17:50 15.1 62 7.9 15.5 27.0 W 0.0 1015.3
18:00 15.1 63 8.1 14.0 30.6 W 0.0 1015.5
18:10 15.1 65 8.6 10.7 23.4 NW 0.0 1015.7
18:20 14.8 67 8.7 13.4 28.1 WNW 0.0 1016.0
18:30 14.5 67 8.5 10.7 20.9 WNW 0.0 1016.2
18:40 14.2 67 8.2 14.3 29.5 W 0.0 1016.2
18:50 14.0 68 8.2 12.6 25.6 WSW 0.0 1016.4
19:00 13.8 70 8.4 7.6 14.8 NW 0.0 1016.4
19:10 13.7 70 8.3 7.5 14.8 WNW 0.0 1016.6
19:20 13.6 69 8.0 9.3 19.4 W 0.0 1016.8
19:30 13.7 68 7.9 9.4 19.4 W 0.0 1016.9
19:40 13.7 67 7.7 6.5 13.3 W 0.0 1016.9
19:50 13.8 67 7.8 7.7 18.4 WNW 0.0 1017.2
20:00 13.7 67 7.7 5.7 11.2 NW 0.0 1017.3
20:10 13.8 68 8.0 4.1 9.7 NW 0.0 1017.4
20:20 13.8 68 8.0 4.5 12.2 WNW 0.0 1017.4
20:30 13.6 68 7.8 6.7 14.8 NW 0.0 1017.3
20:40 13.6 68 7.8 4.9 9.7 WNW 0.0 1017.4
20:50 13.5 68 7.7 3.3 8.6 NNW 0.0 1017.4
21:00 13.3 68 7.5 4.9 9.7 NW 0.0 1017.5
21:10 13.3 68 7.5 5.7 12.2 NW 0.0 1017.5
21:20 13.3 68 7.5 5.8 11.2 NW 0.0 1017.7
21:30 13.3 68 7.5 6.0 11.2 NW 0.0 1017.6
21:40 13.3 68 7.5 6.8 14.8 WNW 0.0 1017.7
21:50 13.2 67 7.2 6.4 14.8 NW 0.0 1017.7
22:00 13.1 67 7.1 6.4 13.3 NNW 0.0 1017.7
22:10 13.0 68 7.2 6.6 13.3 NNW 0.0 1017.6
22:20 12.9 70 7.6 5.6 13.3 WNW 0.0 1017.7
22:30 12.8 70 7.5 5.4 11.2 NNW 0.0 1017.7
22:40 12.7 71 7.6 5.0 8.6 N 0.0 1017.7
22:50 12.6 71 7.5 4.5 9.7 N 0.0 1017.8
23:00 12.5 71 7.4 4.7 9.7 NNW 0.0 1018.0
23:10 12.4 71 7.3 4.5 8.6 NNW 0.0 1017.9
23:20 12.4 71 7.3 5.8 12.2 NNW 0.0 1017.7
23:30 12.4 71 7.3 5.4 9.7 NNW 0.0 1017.5
23:40 12.4 70 7.1 4.1 8.6 NW 0.0 1017.4
23:50 12.4 70 7.1 4.0 8.6 NNW 0.0 1017.4